Time;durP1;ratioP1;P1;durP2;ratioP2;P2;SDS_P1;SDS_P2;PMS_P1;PMS_P2;Temp;Humidity;BMP_temperature;BMP_pressure;BME280_temperature;BME280_humidity;BME280_pressure;Samples;Min_cycle;Max_cycle;Signal;HPM_P1;HPM_P2
2024/01/25 00:01:36;;;;;;;50.28;8.35;;;9.50;99.90;;;9.39;72.10;101637.34;4981137;28;20054;-79
2024/01/25 00:04:11;;;;;;;44.90;8.25;;;9.50;99.90;;;9.37;72.09;101623.38;4998738;28;20062;-79
2024/01/25 00:06:38;;;;;;;49.10;8.48;;;9.50;99.90;;;9.39;72.15;101623.19;5000784;28;20057;-79
2024/01/25 00:09:08;;;;;;;44.35;8.45;;;9.50;99.90;;;9.32;72.25;101628.41;4999798;28;20050;-79
2024/01/25 00:11:40;;;;;;;61.72;9.35;;;9.40;99.90;;;9.31;72.66;101626.72;5000283;28;20108;-79
2024/01/25 00:14:11;;;;;;;44.42;8.05;;;9.40;99.90;;;9.37;72.33;101628.72;5017717;28;20066;-79
2024/01/25 00:16:45;;;;;;;44.08;8.30;;;9.40;99.90;;;9.41;72.42;101635.31;5000484;28;20069;-79
2024/01/25 00:19:16;;;;;;;42.55;8.63;;;9.40;99.90;;;9.31;72.37;101633.88;5000115;28;20409;-79
2024/01/25 00:21:44;;;;;;;;;;;9.40;99.90;;;9.37;72.59;101633.19;5000047;28;20133;-79
2024/01/25 00:24:17;;;;;;;52.38;9.60;;;9.40;99.90;;;9.43;72.47;101635.16;5017148;28;19928;-79
2024/01/25 00:26:44;;;;;;;52.22;8.75;;;9.50;99.90;;;9.44;72.17;101632.31;5016891;28;20394;-79
2024/01/25 00:29:12;;;;;;;38.78;8.23;;;9.50;99.90;;;9.35;72.16;101633.34;5016681;28;20125;-79
2024/01/25 00:31:39;;;;;;;51.13;8.38;;;9.40;99.90;;;9.39;72.36;101639.19;5016888;28;20501;-79
2024/01/25 00:34:07;;;;;;;52.70;8.65;;;9.40;99.90;;;9.41;72.12;101639.81;5015267;28;20505;-79
2024/01/25 00:36:46;;;;;;;49.30;9.13;;;9.40;99.90;;;9.41;72.00;101637.97;4999337;28;20581;-79
2024/01/25 00:39:17;;;;;;;39.78;7.47;;;9.40;99.90;;;9.42;72.28;101645.00;5015677;28;20054;-79
2024/01/25 00:41:48;;;;;;;48.28;9.50;;;9.40;99.90;;;9.39;72.45;101642.66;5016914;28;20077;-79
2024/01/25 00:44:19;;;;;;;44.60;8.90;;;9.40;99.90;;;9.39;72.22;101645.31;4999439;28;20050;-79
2024/01/25 00:46:53;;;;;;;44.88;8.18;;;9.40;99.90;;;9.37;72.36;101631.38;5016837;28;20046;-79
2024/01/25 00:49:22;;;;;;;56.47;8.13;;;9.40;99.90;;;9.42;72.28;101631.69;5016556;28;20510;-79
2024/01/25 00:51:54;;;;;;;43.97;8.88;;;9.40;99.90;;;9.45;72.16;101631.31;4982992;28;20061;-78
2024/01/25 00:54:23;;;;;;;43.22;8.13;;;9.40;99.90;;;9.40;71.86;101635.50;5016439;28;20042;-79
2024/01/25 00:56:53;;;;;;;46.60;8.30;;;9.40;99.90;;;9.36;72.17;101637.69;4999366;28;20144;-81
2024/01/25 00:59:25;;;;;;;37.20;7.50;;;9.40;99.90;;;9.25;72.42;101644.22;4998435;28;20050;-79
2024/01/25 01:01:56;;;;;;;44.80;7.75;;;9.30;99.90;;;9.33;72.21;101637.22;4999019;28;20077;-79
2024/01/25 01:04:29;;;;;;;43.10;7.95;;;9.30;99.90;;;9.41;72.00;101631.81;5014553;28;20042;-79
2024/01/25 01:07:00;;;;;;;48.83;7.75;;;9.40;99.90;;;9.39;71.78;101639.19;4999208;28;20042;-79
2024/01/25 01:09:28;;;;;;;;;;;9.30;99.90;;;9.29;71.84;101632.22;5015412;28;20042;-79
2024/01/25 01:11:56;;;;;;;54.80;7.70;;;9.20;99.90;;;9.31;71.85;101642.69;5016398;28;19956;-79
2024/01/25 01:14:23;;;;;;;39.30;8.60;;;9.20;99.90;;;9.37;71.71;101635.84;4998902;28;20528;-79
2024/01/25 01:16:54;;;;;;;46.97;8.32;;;9.30;99.90;;;9.37;71.37;101638.50;5014979;28;20034;-79
2024/01/25 01:19:21;;;;;;;36.88;6.63;;;9.30;99.90;;;9.35;71.19;101632.53;5015968;28;20497;-79
2024/01/25 01:21:49;;;;;;;40.00;9.07;;;9.20;99.90;;;9.31;71.64;101639.22;4998527;28;20132;-79
2024/01/25 01:24:21;;;;;;;53.35;8.30;;;9.20;99.90;;;9.29;71.35;101645.53;5015087;28;20081;-79
2024/01/25 01:26:50;;;;;;;50.53;8.35;;;9.20;99.90;;;9.23;71.67;101650.75;4998746;28;20045;-79
2024/01/25 01:29:19;;;;;;;44.25;7.47;;;9.20;99.90;;;9.26;71.69;101661.84;4998375;28;20041;-79
2024/01/25 01:31:47;;;;;;;39.88;7.00;;;9.10;99.90;;;9.28;71.50;101659.03;4998911;28;20115;-79
2024/01/25 01:34:14;;;;;;;38.15;7.10;;;9.10;99.90;;;9.28;71.38;101656.38;5015728;28;20042;-79
2024/01/25 01:36:43;;;;;;;45.80;8.57;;;9.10;99.90;;;9.27;71.29;101652.88;5015735;28;20124;-79
2024/01/25 01:39:11;;;;;;;40.08;7.07;;;9.00;99.90;;;9.26;71.12;101666.34;4995921;28;20049;-81
2024/01/25 01:41:40;;;;;;;42.63;8.05;;;9.00;99.90;;;9.27;71.29;101668.00;4988345;28;20390;-79
2024/01/25 01:44:08;;;;;;;42.40;7.20;;;9.00;99.90;;;9.25;71.06;101670.84;4997967;28;20060;-79
2024/01/25 01:46:39;;;;;;;37.45;7.75;;;9.00;99.90;;;9.23;71.11;101670.19;4998258;28;20386;-79
2024/01/25 01:49:08;;;;;;;;;;;9.00;99.90;;;9.22;71.22;101675.66;4994910;28;20038;-79
2024/01/25 01:51:36;;;;;;;45.47;7.03;;;9.00;99.90;;;9.19;71.60;101676.03;4995088;28;20016;-79
2024/01/25 01:54:07;;;;;;;42.42;8.43;;;9.00;99.90;;;9.22;71.61;101678.34;5015350;28;20050;-79
2024/01/25 01:56:35;;;;;;;54.40;8.13;;;9.00;99.90;;;9.16;71.90;101687.84;5014701;28;20041;-78
2024/01/25 01:59:09;;;;;;;41.85;8.30;;;9.00;99.90;;;9.15;72.17;101680.03;5013660;28;20584;-79
2024/01/25 02:01:36;;;;;;;38.40;7.15;;;9.00;99.90;;;9.15;72.18;101680.88;5015660;28;20180;-79
2024/01/25 02:04:05;;;;;;;44.22;7.70;;;9.00;99.90;;;9.17;72.02;101676.19;5015375;28;20050;-79
2024/01/25 02:06:32;;;;;;;46.95;8.15;;;9.00;99.90;;;9.18;72.11;101685.84;4981396;28;20050;-79
2024/01/25 02:09:00;;;;;;;40.58;7.40;;;9.00;99.90;;;9.16;72.18;101689.69;4980913;28;20060;-79
2024/01/25 02:11:28;;;;;;;47.47;7.32;;;9.00;99.90;;;9.17;72.33;101684.16;4965048;28;20072;-79
2024/01/25 02:13:57;;;;;;;34.80;7.32;;;9.00;99.90;;;9.20;72.14;101689.16;4997632;28;20092;-79
2024/01/25 02:16:26;;;;;;;39.72;8.68;;;9.10;99.90;;;9.19;72.11;101700.81;5013287;28;20042;-78
2024/01/25 02:18:57;;;;;;;42.00;6.63;;;9.10;99.90;;;9.19;72.38;101700.81;5013949;28;20390;-79
2024/01/25 02:21:24;;;;;;;47.42;7.93;;;9.00;99.90;;;9.20;72.08;101693.66;4997290;28;20567;-79
2024/01/25 02:23:53;;;;;;;38.33;7.43;;;9.00;99.90;;;9.14;72.31;101694.34;4997534;28;20045;-79
2024/01/25 02:26:21;;;;;;;41.80;7.35;;;9.00;99.90;;;9.12;72.38;101699.00;5015012;28;20092;-79
2024/01/25 02:28:48;;;;;;;39.38;7.05;;;9.00;99.90;;;9.13;72.33;101711.31;5014784;28;20120;-79
2024/01/25 02:31:18;;;;;;;35.15;7.95;;;9.00;99.90;;;9.13;72.29;101716.66;5014733;28;20077;-79
2024/01/25 02:33:50;;;;;;;43.22;7.90;;;9.00;99.90;;;9.03;72.52;101724.81;4997804;28;20096;-79
2024/01/25 02:36:17;;;;;;;41.65;7.82;;;9.00;99.90;;;8.99;72.65;101715.53;5014872;28;20621;-81
2024/01/25 02:38:47;;;;;;;49.58;8.00;;;8.90;99.90;;;8.95;72.73;101720.34;4997259;28;20030;-79
2024/01/25 02:41:16;;;;;;;39.42;7.43;;;8.90;99.90;;;8.99;72.73;101721.66;4998331;28;20050;-79
2024/01/25 02:43:44;;;;;;;45.90;7.80;;;8.90;99.90;;;8.98;72.65;101727.16;5014646;28;20489;-79
2024/01/25 02:46:12;;;;;;;42.58;7.78;;;8.90;99.90;;;9.00;72.53;101714.50;5018381;28;20493;-79
2024/01/25 02:48:41;;;;;;;38.13;6.82;;;8.90;99.90;;;8.99;72.28;101716.34;4968732;28;20049;-79
2024/01/25 02:51:11;;;;;;;39.55;7.35;;;8.90;99.90;;;9.04;72.14;101715.84;5018384;28;20425;-81
2024/01/25 02:53:40;;;;;;;33.33;6.60;;;8.90;99.90;;;9.03;71.74;101719.50;5017707;28;20536;-79
2024/01/25 02:56:24;;;;;;;40.72;7.57;;;8.90;99.90;;;9.01;71.60;101713.50;5001387;28;20132;-81
2024/01/25 02:59:21;;;;;;;40.97;7.35;;;8.80;99.90;;;8.97;71.40;101720.16;5027055;23;20041;-79
2024/01/25 03:01:50;;;;;;;39.20;6.82;;;8.80;99.90;;;8.96;71.60;101721.16;5019163;28;20050;-79
2024/01/25 03:04:17;;;;;;;38.20;6.95;;;8.80;99.90;;;8.94;71.28;101720.53;4988851;28;20038;-79
2024/01/25 03:06:45;;;;;;;49.42;7.28;;;8.70;99.90;;;8.89;71.55;101721.03;4983092;28;20073;-79
2024/01/25 03:09:18;;;;;;;41.67;7.63;;;8.70;99.90;;;8.88;71.53;101724.69;5018981;28;20120;-79
2024/01/25 03:11:48;;;;;;;43.45;7.97;;;8.70;99.90;;;8.88;71.58;101737.13;5001089;28;20464;-79
2024/01/25 03:14:17;;;;;;;57.92;8.18;;;8.70;99.90;;;8.87;71.27;101743.47;5018716;28;20042;-79
2024/01/25 03:16:44;;;;;;;40.75;6.68;;;8.70;99.90;;;8.88;71.17;101737.13;4985462;28;20101;-81
2024/01/25 03:22:29;;;;;;;31.20;6.03;;;8.60;99.90;;;8.83;71.16;101736.81;4976671;28;20046;-81
2024/01/25 03:25:03;;;;;;;40.78;7.28;;;8.60;99.90;;;8.81;70.99;101738.81;4997957;28;20108;-81
2024/01/25 03:27:34;;;;;;;49.78;8.00;;;8.60;99.90;;;8.79;71.16;101743.50;4970350;28;20056;-81
2024/01/25 03:30:05;;;;;;;45.60;6.50;;;8.50;99.90;;;8.77;71.26;101747.13;4984415;28;20085;-79
2024/01/25 03:32:34;;;;;;;40.95;7.20;;;8.60;99.90;;;8.80;70.97;101755.78;5017804;28;20042;-79
2024/01/25 03:35:02;;;;;;;37.83;6.38;;;8.50;99.90;;;8.76;70.99;101753.44;5000696;28;20117;-79
2024/01/25 03:37:33;;;;;;;39.95;6.97;;;8.50;99.90;;;8.73;70.92;101744.97;5017362;28;20497;-78
2024/01/25 03:40:04;;;;;;;40.65;7.78;;;8.50;99.90;;;8.70;70.77;101751.47;4991769;28;20076;-79
2024/01/25 03:42:32;;;;;;;43.50;6.43;;;8.40;99.90;;;8.67;71.03;101741.16;4995805;28;20047;-78
2024/01/25 03:45:09;;;;;;;47.58;7.90;;;8.40;99.90;;;8.68;71.03;101741.97;4997543;28;20070;-79
2024/01/25 03:47:39;;;;;;;37.20;6.53;;;8.40;99.90;;;8.66;71.02;101744.81;4980658;28;20042;-79
2024/01/25 03:50:07;;;;;;;37.75;6.80;;;8.40;99.90;;;8.65;70.85;101748.47;4997315;28;20047;-79
2024/01/25 03:52:35;;;;;;;40.47;6.55;;;8.40;99.90;;;8.61;70.62;101749.81;4996903;28;20129;-79
2024/01/25 03:55:06;;;;;;;35.28;6.10;;;8.30;99.90;;;8.58;70.83;101760.75;4979268;28;20046;-79
2024/01/25 03:57:39;;;;;;;38.47;7.30;;;8.30;99.90;;;8.57;70.95;101761.78;4997327;28;20065;-81
2024/01/25 04:00:11;;;;;;;40.05;7.07;;;8.30;99.90;;;8.55;70.61;101761.13;4996360;28;20129;-79
2024/01/25 04:02:38;;;;;;;39.05;5.80;;;8.30;99.90;;;8.52;70.73;101762.25;4979986;28;20191;-79
2024/01/25 04:05:06;;;;;;;38.70;6.72;;;8.20;99.90;;;8.50;70.51;101766.09;5014686;28;20101;-79
2024/01/25 04:07:34;;;;;;;37.50;6.63;;;8.20;99.90;;;8.47;70.55;101755.78;4982613;28;20108;-79
2024/01/25 04:10:02;;;;;;;45.25;7.03;;;8.20;99.90;;;8.44;70.41;101759.63;5016666;28;20505;-79
2024/01/25 04:12:31;;;;;;;31.75;5.78;;;8.10;99.90;;;8.42;70.50;101758.09;4966064;28;20048;-79
2024/01/25 04:14:58;;;;;;;31.17;6.30;;;8.10;99.90;;;8.39;70.44;101758.44;5016464;28;20044;-79
2024/01/25 04:17:27;;;;;;;34.67;6.25;;;8.10;99.90;;;8.35;70.56;101768.53;5017482;28;20045;-78
2024/01/25 04:19:55;;;;;;;41.67;6.80;;;8.10;99.90;;;8.34;70.63;101763.38;4983083;28;20498;-78
2024/01/25 04:22:22;;;;;;;37.55;6.82;;;8.00;99.90;;;8.32;70.69;101758.22;4990405;28;20039;-79
2024/01/25 04:24:51;;;;;;;39.20;6.88;;;8.00;99.90;;;8.31;70.76;101758.41;4997656;28;20121;-81
2024/01/25 04:27:18;;;;;;;32.10;6.07;;;8.00;99.90;;;8.27;71.01;101772.00;4980013;28;20112;-81
2024/01/25 04:29:47;;;;;;;32.58;6.22;;;8.00;99.90;;;8.27;70.83;101777.31;4997166;28;20113;-79
2024/01/25 04:32:15;;;;;;;33.83;6.65;;;8.00;99.90;;;8.24;71.06;101772.34;4995541;28;20042;-78
2024/01/25 04:34:47;;;;;;;37.42;6.45;;;8.00;99.90;;;8.24;70.77;101780.31;4979729;28;20518;-79
2024/01/25 04:37:14;;;;;;;34.35;6.55;;;7.90;99.90;;;8.22;70.87;101778.81;4997348;28;20046;-79
2024/01/25 04:39:42;;;;;;;42.17;6.88;;;7.90;99.90;;;8.18;71.02;101778.31;4997093;28;20410;-82
2024/01/25 04:42:10;;;;;;;43.83;6.80;;;7.90;99.90;;;8.17;70.99;101776.66;4979207;28;20046;-84
2024/01/25 04:44:37;;;;;;;36.70;6.93;;;7.90;99.90;;;8.17;70.94;101775.81;4996513;28;20046;-84
2024/01/25 04:47:05;;;;;;;32.47;6.75;;;7.80;99.90;;;8.16;70.89;101779.47;4990637;28;20049;-84
2024/01/25 04:49:33;;;;;;;36.00;7.50;;;7.90;99.90;;;8.13;71.00;101783.28;4998211;28;20477;-84
2024/01/25 04:52:05;;;;;;;37.42;7.65;;;7.80;99.90;;;8.11;70.93;101787.09;4998401;28;20052;-84
2024/01/25 04:54:32;;;;;;;34.08;6.97;;;7.80;99.90;;;8.08;70.89;101776.78;4998164;28;20100;-84
2024/01/25 04:56:59;;;;;;;33.80;6.90;;;7.80;99.90;;;8.07;70.95;101777.78;5015504;28;20041;-81
2024/01/25 04:59:27;;;;;;;37.92;7.20;;;7.70;99.90;;;8.04;70.91;101780.75;4966957;28;20077;-84
2024/01/25 05:01:55;;;;;;;39.55;7.18;;;7.70;99.90;;;8.03;71.05;101787.06;4978409;28;20049;-82
2024/01/25 05:04:22;;;;;;;39.60;7.38;;;7.70;99.90;;;8.00;71.04;101782.91;4995377;28;20461;-84
2024/01/25 05:06:52;;;;;;;42.08;7.53;;;7.70;99.90;;;8.00;71.11;101781.09;5003255;28;20045;-85
2024/01/25 05:09:22;;;;;;;38.13;7.30;;;7.70;99.90;;;7.97;70.85;101769.97;5014233;28;20064;-88
2024/01/25 05:11:50;;;;;;;44.40;6.93;;;7.60;99.90;;;7.94;70.95;101760.47;4980553;28;20054;-90
2024/01/25 05:14:17;;;;;;;41.63;6.22;;;7.60;99.90;;;7.93;70.96;101768.63;4977609;28;20049;-88
2024/01/25 05:16:44;;;;;;;39.60;7.80;;;7.60;99.90;;;7.92;71.17;101762.47;4993907;28;20104;-86
2024/01/25 05:19:12;;;;;;;39.65;7.13;;;7.60;99.90;;;7.91;71.23;101774.09;4961760;28;20445;-88
2024/01/25 05:21:40;;;;;;;40.22;6.95;;;7.60;99.90;;;7.88;71.26;101773.59;4961709;28;20421;-88
2024/01/25 05:24:09;;;;;;;35.33;6.57;;;7.60;99.90;;;7.87;71.11;101772.75;4993494;28;20493;-88
2024/01/25 05:26:38;;;;;;;36.33;6.82;;;7.60;99.90;;;7.84;70.97;101773.06;4978281;28;20046;-88
2024/01/25 05:29:05;;;;;;;38.45;7.63;;;7.50;99.90;;;7.82;70.75;101763.63;4977098;28;20042;-91
2024/01/25 05:31:33;;;;;;;37.67;7.38;;;7.50;99.90;;;7.79;70.82;101769.22;4978285;28;20050;-85
2024/01/25 05:34:00;;;;;;;40.47;6.90;;;7.50;99.90;;;7.76;71.19;101770.41;4996974;28;20040;-85
2024/01/25 05:36:28;;;;;;;34.03;6.47;;;7.40;99.90;;;7.74;71.07;101770.53;5005893;28;20042;-86
2024/01/25 05:38:55;;;;;;;39.78;7.63;;;7.50;99.90;;;7.74;70.97;101769.72;4998715;28;20473;-86
2024/01/25 05:41:23;;;;;;;34.70;7.50;;;7.40;99.90;;;7.70;70.69;101769.19;4981831;28;20049;-86
2024/01/25 05:43:52;;;;;;;40.72;7.53;;;7.40;99.90;;;7.70;70.87;101771.84;4982586;28;20100;-86
2024/01/25 05:46:19;;;;;;;38.30;7.03;;;7.40;99.90;;;7.69;70.94;101769.38;4998946;28;20096;-87
2024/01/25 05:48:47;;;;;;;38.05;7.22;;;7.40;99.90;;;7.69;70.96;101774.69;4994715;28;20045;-80
2024/01/25 05:51:14;;;;;;;39.30;7.22;;;7.40;99.90;;;7.66;71.21;101773.19;4998380;28;20096;-81
2024/01/25 05:53:42;;;;;;;41.45;7.95;;;7.40;99.90;;;7.67;71.29;101772.19;4997468;28;20405;-81
2024/01/25 05:56:10;;;;;;;42.28;7.53;;;7.40;99.90;;;7.66;71.50;101772.34;4997833;28;20057;-81
2024/01/25 05:58:38;;;;;;;38.97;7.95;;;7.40;99.90;;;7.66;71.59;101781.16;4946255;28;20109;-80
2024/01/25 06:01:09;;;;;;;43.83;8.07;;;7.40;99.90;;;7.67;71.59;101784.63;5009355;28;20066;-80
2024/01/25 06:03:37;;;;;;;33.83;7.72;;;7.40;99.90;;;7.65;71.44;101779.47;4962973;28;20061;-81
2024/01/25 06:06:07;;;;;;;35.05;7.70;;;7.40;99.90;;;7.65;71.68;101786.59;4930635;28;20467;-83
2024/01/25 06:08:35;;;;;;;48.53;7.63;;;7.30;99.90;;;7.62;71.88;101794.91;4996408;28;20038;-82
2024/01/25 06:11:04;;;;;;;39.85;6.90;;;7.30;99.90;;;7.61;71.74;101795.88;5005121;28;20072;-82
2024/01/25 06:13:33;;;;;;;41.65;7.60;;;7.30;99.90;;;7.59;71.62;101793.38;4962768;28;20054;-82
2024/01/25 06:16:01;;;;;;;38.78;7.90;;;7.30;99.90;;;7.59;71.77;101788.06;4994739;28;20677;-82
2024/01/25 06:18:30;;;;;;;42.42;7.60;;;7.30;99.90;;;7.54;71.79;101784.25;4996586;28;20410;-82
2024/01/25 06:20:57;;;;;;;38.25;8.07;;;7.30;99.90;;;7.52;71.64;101787.06;4995867;28;20129;-82
2024/01/25 06:23:25;;;;;;;40.17;7.55;;;7.20;99.90;;;7.52;72.08;101787.06;4995079;28;20133;-82
2024/01/25 06:25:52;;;;;;;41.67;7.47;;;7.20;99.90;;;7.51;71.96;101788.03;4996136;28;20058;-82
2024/01/25 06:28:20;;;;;;;43.00;8.40;;;7.20;99.90;;;7.51;72.01;101789.84;4996421;28;20485;-82
2024/01/25 06:30:47;;;;;;;40.15;7.57;;;7.20;99.90;;;7.51;72.00;101800.47;5003969;28;20044;-84
2024/01/25 06:33:14;;;;;;;41.50;7.05;;;7.20;99.90;;;7.49;71.72;101805.94;5016782;28;20452;-82
2024/01/25 06:35:43;;;;;;;35.55;7.20;;;7.20;99.90;;;7.49;71.93;101805.94;4982609;28;20104;-81
2024/01/25 06:38:11;;;;;;;42.42;7.85;;;7.20;99.90;;;7.49;72.09;101801.47;5015905;28;20076;-81
2024/01/25 06:40:38;;;;;;;36.20;7.72;;;7.20;99.90;;;7.48;72.09;101813.09;4985020;28;20070;-81
2024/01/25 06:43:05;;;;;;;38.13;6.90;;;7.20;99.90;;;7.46;71.72;101808.91;4996019;28;20413;-81
2024/01/25 06:45:33;;;;;;;34.28;7.20;;;7.20;99.90;;;7.43;71.95;101801.28;4978915;28;20050;-81
2024/01/25 06:48:01;;;;;;;47.35;7.40;;;7.10;99.90;;;7.42;71.92;101810.22;4995998;28;20081;-81
2024/01/25 06:50:28;;;;;;;37.55;7.78;;;7.10;99.90;;;7.39;72.13;101810.53;4995034;28;20046;-81
2024/01/25 06:52:57;;;;;;;33.42;7.32;;;7.10;99.90;;;7.39;72.07;101821.16;4994526;28;20049;-81
2024/01/25 06:55:25;;;;;;;42.92;8.50;;;7.10;99.90;;;7.38;72.14;101832.75;4977848;28;20173;-81
2024/01/25 06:57:54;;;;;;;40.90;7.40;;;7.00;99.90;;;7.35;72.14;101828.59;4995168;28;20056;-81
2024/01/25 07:00:22;;;;;;;45.50;7.90;;;7.00;99.90;;;7.36;72.44;101834.72;4994933;28;20128;-81
2024/01/25 07:02:49;;;;;;;44.67;8.20;;;7.00;99.90;;;7.37;72.75;101833.72;4993988;28;20043;-81
2024/01/25 07:05:17;;;;;;;48.25;8.25;;;7.00;99.90;;;7.36;72.95;101838.22;4995410;28;20050;-81
2024/01/25 07:07:45;;;;;;;36.05;7.55;;;7.00;99.90;;;7.35;73.13;101843.69;4995188;28;20055;-81
2024/01/25 07:10:14;;;;;;;38.13;8.35;;;7.00;99.90;;;7.34;72.82;101836.72;4977676;28;20042;-81
2024/01/25 07:12:41;;;;;;;42.80;7.80;;;7.00;99.90;;;7.34;72.52;101845.50;4977508;28;20042;-81
2024/01/25 07:15:10;;;;;;;43.05;8.38;;;7.00;99.90;;;7.33;72.58;101850.97;4994385;28;20050;-81
2024/01/25 07:17:38;;;;;;;57.75;8.57;;;7.00;99.90;;;7.31;72.43;101848.47;4977685;28;20050;-81
2024/01/25 07:20:08;;;;;;;39.05;8.18;;;7.00;99.90;;;7.30;72.78;101851.28;4995377;28;20391;-81
2024/01/25 07:22:36;;;;;;;44.72;9.38;;;7.00;99.90;;;7.32;72.71;101851.94;4993489;28;20081;-81
2024/01/25 07:25:04;;;;;;;43.10;8.65;;;7.00;99.90;;;7.26;72.92;101849.91;4993629;28;20043;-81
2024/01/25 07:27:33;;;;;;;43.55;8.75;;;7.00;99.90;;;7.26;73.09;101850.75;4946095;28;20048;-81
2024/01/25 07:30:00;;;;;;;42.00;9.00;;;6.90;99.90;;;7.26;72.75;101848.09;4993624;28;20101;-81
2024/01/25 07:32:28;;;;;;;46.80;9.18;;;6.90;99.90;;;7.26;72.55;101844.59;4980419;28;20138;-81
2024/01/25 07:34:56;;;;;;;50.60;9.00;;;6.90;99.90;;;7.24;72.59;101847.44;4980902;28;20126;-81
2024/01/25 07:37:24;;;;;;;49.55;8.63;;;6.90;99.90;;;7.21;72.75;101851.22;4997100;28;20054;-81
2024/01/25 07:39:51;;;;;;;42.13;9.02;;;7.00;99.90;;;7.20;73.01;101848.72;4998020;28;20039;-81
2024/01/25 07:42:18;;;;;;;45.83;8.75;;;6.90;99.90;;;7.20;72.87;101854.03;4980728;28;20050;-81
2024/01/25 07:44:47;;;;;;;41.67;8.75;;;6.90;99.90;;;7.19;72.88;101855.84;4998086;28;20066;-81
2024/01/25 07:47:15;;;;;;;47.47;10.05;;;6.90;99.90;;;7.19;72.87;101855.03;4997254;28;20042;-81
2024/01/25 07:49:42;;;;;;;48.75;10.10;;;6.90;99.90;;;7.19;73.18;101855.03;4980359;28;20096;-81
2024/01/25 07:52:10;;;;;;;41.10;9.48;;;6.90;99.90;;;7.18;73.42;101864.81;5004029;28;20073;-81
2024/01/25 07:54:37;;;;;;;49.70;8.98;;;6.90;99.90;;;7.21;73.57;101879.56;5017643;28;20502;-81
2024/01/25 07:57:05;;;;;;;49.78;9.93;;;7.10;99.90;;;7.22;73.62;101876.78;4985455;28;20052;-81
2024/01/25 07:59:33;;;;;;;45.40;9.60;;;6.90;99.90;;;7.22;73.98;101874.13;4980474;28;20077;-81
2024/01/25 08:02:02;;;;;;;46.00;9.60;;;6.90;99.90;;;7.23;73.84;101870.47;4964813;28;20070;-81
2024/01/25 08:04:29;;;;;;;46.08;9.57;;;6.90;99.90;;;7.22;74.04;101871.47;4980604;28;20100;-81
2024/01/25 08:06:57;;;;;;;51.08;10.25;;;7.00;99.90;;;7.25;74.18;101874.78;4996684;28;20050;-81
2024/01/25 08:09:24;;;;;;;44.35;9.75;;;7.00;99.90;;;7.27;74.21;101881.63;4996703;28;20034;-81
2024/01/25 08:11:53;;;;;;;46.75;10.30;;;7.00;99.90;;;7.30;74.20;101878.66;4980054;28;20054;-81
2024/01/25 08:14:20;;;;;;;42.78;9.35;;;7.00;99.90;;;7.28;74.38;101893.91;4997954;28;20080;-82
2024/01/25 08:16:48;;;;;;;40.22;9.30;;;7.00;99.90;;;7.29;74.50;101881.47;4947969;28;20497;-81
2024/01/25 08:19:17;;;;;;;47.47;9.20;;;7.00;99.90;;;7.28;74.70;101879.81;4980347;28;20050;-81
2024/01/25 08:21:45;;;;;;;46.67;9.35;;;7.00;99.90;;;7.29;74.66;101877.00;4980227;28;20046;-81
2024/01/25 08:24:12;;;;;;;52.47;9.70;;;7.00;99.90;;;7.26;74.75;101882.59;4991169;28;20050;-81
2024/01/25 08:26:40;;;;;;;53.42;10.13;;;7.00;99.90;;;7.26;75.29;101897.69;4999783;28;20081;-81
2024/01/25 08:29:09;;;;;;;52.55;10.57;;;7.00;99.90;;;7.26;75.38;101887.91;5017258;28;20034;-81
2024/01/25 08:31:37;;;;;;;49.17;10.85;;;7.00;99.90;;;7.26;75.63;101882.59;4999418;28;20132;-82
2024/01/25 08:34:05;;;;;;;57.17;11.85;;;7.00;99.90;;;7.28;75.62;101885.13;4999625;28;20513;-81
2024/01/25 08:36:34;;;;;;;54.95;14.55;;;7.10;99.90;;;7.31;75.75;101882.13;4999812;28;20049;-81
2024/01/25 08:39:03;;;;;;;49.78;12.98;;;7.10;99.90;;;7.32;76.20;101886.44;5016879;28;20121;-81
2024/01/25 08:41:31;;;;;;;58.30;13.65;;;7.10;99.90;;;7.36;76.08;101885.97;5016800;28;20034;-81
2024/01/25 08:43:59;;;;;;;73.53;17.17;;;7.10;99.90;;;7.38;76.47;101880.53;4999572;28;20049;-81
2024/01/25 08:46:26;;;;;;;57.63;15.55;;;7.10;99.90;;;7.38;76.79;101872.56;4983078;28;20124;-81
2024/01/25 08:48:54;;;;;;;61.47;15.55;;;7.20;99.90;;;7.37;76.79;101874.41;4983772;28;20096;-81
2024/01/25 08:51:21;;;;;;;57.65;15.85;;;7.20;99.90;;;7.40;76.71;101875.91;4993947;28;20030;-81
2024/01/25 08:54:10;;;;;;;77.82;18.20;;;7.20;99.90;;;7.40;76.67;101874.06;4996406;28;20050;-81
2024/01/25 08:56:38;;;;;;;63.35;18.08;;;7.30;99.90;;;7.42;76.91;101864.16;4979655;28;20093;-81
2024/01/25 08:59:05;;;;;;;67.10;19.20;;;7.20;99.90;;;7.45;76.56;101874.44;4980303;28;20137;-81
2024/01/25 09:01:32;;;;;;;63.67;18.88;;;7.30;99.90;;;7.49;76.76;101869.66;4979802;28;20058;-81
2024/01/25 09:04:02;;;;;;;80.75;21.63;;;7.30;99.90;;;7.47;76.98;101874.31;4964190;28;20042;-81
2024/01/25 09:06:30;;;;;;;78.05;22.67;;;7.30;99.90;;;7.48;76.94;101862.69;4964176;28;20046;-81
2024/01/25 09:08:57;;;;;;;68.25;24.75;;;7.40;99.90;;;7.51;77.03;101862.34;4997146;28;20050;-81
2024/01/25 09:11:27;;;;;;;74.15;23.35;;;7.40;99.90;;;7.55;77.11;101863.72;4979991;28;20062;-81
2024/01/25 09:13:54;;;;;;;81.90;24.33;;;7.40;99.90;;;7.59;77.16;101861.59;4996916;28;20050;-81
2024/01/25 09:16:22;;;;;;;70.85;23.27;;;7.40;99.90;;;7.61;77.09;101856.94;4979519;28;20050;-81
2024/01/25 09:18:49;;;;;;;67.25;23.67;;;7.50;99.90;;;7.64;77.16;101865.44;4963338;28;20053;-81
2024/01/25 09:21:17;;;;;;;73.35;22.95;;;7.50;99.90;;;7.69;77.09;101863.13;4963253;28;20494;-82
2024/01/25 09:23:44;;;;;;;80.10;26.20;;;7.60;99.90;;;7.73;77.13;101876.94;4998203;28;20050;-81
2024/01/25 09:26:12;;;;;;;78.05;24.83;;;7.60;99.90;;;7.74;77.50;101868.81;4996308;28;20120;-81
2024/01/25 09:28:40;;;;;;;69.43;23.48;;;7.60;99.90;;;7.78;77.54;101884.44;4999503;28;20049;-81
2024/01/25 09:31:08;;;;;;;69.82;22.80;;;7.60;99.90;;;7.79;77.30;101872.81;4998515;28;20072;-81
2024/01/25 09:33:36;;;;;;;76.57;24.60;;;7.70;99.90;;;7.70;77.73;101874.59;5013358;28;20042;-81
2024/01/25 09:36:04;;;;;;;78.30;23.70;;;7.60;99.90;;;7.74;77.61;101887.38;4997624;28;20053;-81
2024/01/25 09:38:31;;;;;;;70.57;23.35;;;7.70;99.90;;;7.73;77.72;101906.97;4996394;28;20050;-81
2024/01/25 09:40:59;;;;;;;90.25;25.58;;;7.60;99.90;;;7.73;77.94;101906.16;4946963;28;20417;-81
2024/01/25 09:43:27;;;;;;;82.70;25.45;;;7.60;99.90;;;7.77;78.00;101909.31;4996303;28;20054;-81
2024/01/25 09:45:56;;;;;;;82.97;27.08;;;7.70;99.90;;;7.81;77.91;101910.66;5007617;28;20052;-83
2024/01/25 09:48:23;;;;;;;78.93;27.55;;;7.70;99.90;;;7.77;78.42;101911.97;4998822;28;20049;-83
2024/01/25 09:50:53;;;;;;;86.93;28.63;;;7.70;99.90;;;7.72;78.71;101894.69;4981997;28;20041;-82
2024/01/25 09:53:23;;;;;;;76.65;26.92;;;7.70;99.90;;;7.75;79.19;101883.72;4997651;28;20056;-81
2024/01/25 09:56:02;;;;;;;92.43;30.10;;;7.80;99.90;;;7.79;78.98;101883.44;4990256;28;20569;-81
2024/01/25 09:58:38;;;;;;;83.97;29.42;;;7.80;99.90;;;7.73;79.28;101891.03;4996437;28;20077;-81
2024/01/25 10:01:12;;;;;;;76.20;27.08;;;7.80;99.90;;;7.82;79.35;101899.06;4995993;28;20117;-81
2024/01/25 10:03:41;;;;;;;97.53;29.30;;;7.80;99.90;;;7.79;79.17;101904.69;4994853;28;20054;-81
2024/01/25 10:06:09;;;;;;;87.40;29.42;;;7.90;99.90;;;7.74;79.71;101913.13;4978650;28;20137;-81
2024/01/25 10:08:36;;;;;;;87.80;27.92;;;7.80;99.90;;;7.77;79.42;101915.47;4997145;28;20078;-81
2024/01/25 10:11:04;;;;;;;81.25;28.10;;;7.80;99.90;;;7.74;79.75;101913.13;4994621;28;20484;-81
2024/01/25 10:13:33;;;;;;;87.40;28.85;;;7.80;99.90;;;7.81;79.55;101914.16;4995839;28;20060;-81
2024/01/25 10:16:00;;;;;;;89.72;27.20;;;7.80;99.90;;;7.81;79.47;101908.84;4962485;28;20060;-81
2024/01/25 10:18:29;;;;;;;96.13;29.25;;;7.90;99.90;;;7.85;79.49;101917.31;4996143;28;20042;-81
2024/01/25 10:20:56;;;;;;;87.15;25.42;;;7.90;99.90;;;7.80;79.78;101912.47;4995174;28;20077;-81
2024/01/25 10:23:27;;;;;;;78.28;26.20;;;7.90;99.90;;;7.81;79.80;101908.00;4999227;28;20072;-81
2024/01/25 10:25:54;;;;;;;80.40;25.67;;;7.90;99.90;;;7.80;80.01;101912.47;5015565;28;20116;-81
2024/01/25 10:28:21;;;;;;;77.18;25.42;;;7.90;99.90;;;7.88;79.80;101917.00;4998456;28;20060;-81